Inyokern, CA (93527)

10:17 AM PDT on August 29, 2014 (GMT -0700)
5 miles West of town | Change Station
CLOSE
Current Station
Personal Weather Station
Location: Ridgecrest, CA
Elevation: 2400 ft
Nearby Weather Stations

Elev 2400 ft 35.65 °N, 117.76 °W | Updated 2 minutes ago

Clear
Clear
85.3 °F
Feels Like 82 °F
N
1.0
Wind Variable Wind from West
Gusts 3.0 mph

Today
High -- | Low -- °F
--% Chance of Precip.
Yesterday
High -- | Low -- °F
Precip. -- in
6:21 AM 7:22 PM
Waxing Crescent, 15% visible
Pressure 29.89 in
Visibility 10.0 miles
Clouds Clear
Heat Index 82 °F
Dew Point 25 °F
Humidity 11%
Rainfall 0.00 in
Snow Depth Not available.
UV 6 out of 12
Pollen 9.30 out of 12
Air Quality Not available.
Flu Activity Not available.
METAR KNID 291656Z AUTO 20004KT 10SM CLR 29/M03 A2996 RMK AO2 SLP121 T02891028 $

More Conditions Fewer Conditions

Pressure 29.89 in
Visibility 10.0 miles
Clouds Clear
Heat Index 82 °F
Dew Point 25 °F
Humidity 11%
Rainfall 0.00 in
Snow Depth Not available.
UV 6 out of 12
Pollen 9.30 out of 12
Air Quality Not available.
Flu Activity Not available.
METAR KNID 291656Z AUTO 20004KT 10SM CLR 29/M03 A2996 RMK AO2 SLP121 T02891028 $

More Conditions Fewer Conditions

10-Day Weather Forecast

Almanac

Astronomy

Aug. 29, 2014 Rise Set
Actual Time 6:21 AM PDT 7:22 PM PDT
Civil Twilight 5:54 AM PDT 7:48 PM PDT
Nautical Twilight 5:23 AM PDT 8:19 PM PDT
Astronomical Twilight 4:51 AM PDT 8:52 PM PDT
Moon 10:06 AM PDT 9:32 PM PDT
Length of Visible Light 13h 53m
Length of Day
13h 01m
Tomorrow will be 2m 7s shorter.
Waxing Crescent, 15% of the Moon is Illuminated
Today
Waxing Crescent
Sep 2
First Quarter
Sep 8
Full
Sep 15
Last Quarter
Sep 24
New

Today's Extremes

State Highs State Lows

Community

WunderPhotos

Upload Photos

1,748,298 photos uploaded!

Nearby

Snow Depth

Station Depth Elevation
Summit Meadow 0 in 9122 ft
Monitor Pass 0 in 8350 ft
Blue Lakes 0 in 8000 ft
Forestdale Creek 0 in 8029 ft
Hagan's Meadow 1 in 8000 ft

Earthquake Activity

City Distance Mag. Time & Date
Orange Cove, California 101 miles 2.5 7:48 AM PDT
2014-08-29
Minimum magnitude displayed is 2.5.

Coastal Water Temperatures

Place Temperature
No Stations Reporting

Nearby Weather Stations